sensor_id;sensor_type;location;lat;lon;timestamp;P1;durP1;ratioP1;P2;durP2;ratioP2
15679;SDS011;15488;48.114;11.532;2023-07-31T00:02:21;1.60;;;1.40;;
15679;SDS011;15488;48.114;11.532;2023-07-31T00:04:49;2.87;;;1.53;;
15679;SDS011;15488;48.114;11.532;2023-07-31T00:07:16;2.17;;;1.60;;
15679;SDS011;15488;48.114;11.532;2023-07-31T00:09:45;2.60;;;1.70;;
15679;SDS011;15488;48.114;11.532;2023-07-31T00:12:13;2.70;;;1.63;;
15679;SDS011;15488;48.114;11.532;2023-07-31T00:14:40;3.63;;;1.57;;
15679;SDS011;15488;48.114;11.532;2023-07-31T00:17:07;2.90;;;1.90;;
15679;SDS011;15488;48.114;11.532;2023-07-31T00:19:35;1.87;;;1.63;;
15679;SDS011;15488;48.114;11.532;2023-07-31T00:22:02;2.67;;;1.83;;
15679;SDS011;15488;48.114;11.532;2023-07-31T00:24:30;2.37;;;1.53;;
15679;SDS011;15488;48.114;11.532;2023-07-31T00:26:59;2.67;;;1.57;;
15679;SDS011;15488;48.114;11.532;2023-07-31T00:29:27;3.07;;;1.40;;
15679;SDS011;15488;48.114;11.532;2023-07-31T00:31:54;3.53;;;1.60;;
15679;SDS011;15488;48.114;11.532;2023-07-31T00:34:21;2.43;;;1.80;;
15679;SDS011;15488;48.114;11.532;2023-07-31T00:36:49;2.20;;;1.83;;
15679;SDS011;15488;48.114;11.532;2023-07-31T00:39:16;2.63;;;1.67;;
15679;SDS011;15488;48.114;11.532;2023-07-31T00:41:44;2.33;;;1.50;;
15679;SDS011;15488;48.114;11.532;2023-07-31T00:44:13;3.13;;;1.80;;
15679;SDS011;15488;48.114;11.532;2023-07-31T00:46:40;2.10;;;1.60;;
15679;SDS011;15488;48.114;11.532;2023-07-31T00:49:08;2.37;;;1.53;;
15679;SDS011;15488;48.114;11.532;2023-07-31T00:51:36;2.40;;;1.70;;
15679;SDS011;15488;48.114;11.532;2023-07-31T00:54:04;3.67;;;1.53;;
15679;SDS011;15488;48.114;11.532;2023-07-31T00:56:32;2.10;;;1.40;;
15679;SDS011;15488;48.114;11.532;2023-07-31T00:59:00;1.90;;;1.70;;
15679;SDS011;15488;48.114;11.532;2023-07-31T01:01:29;3.00;;;1.70;;
15679;SDS011;15488;48.114;11.532;2023-07-31T01:03:56;2.27;;;1.60;;
15679;SDS011;15488;48.114;11.532;2023-07-31T01:06:25;3.33;;;1.47;;
15679;SDS011;15488;48.114;11.532;2023-07-31T01:09:00;1.93;;;1.53;;
15679;SDS011;15488;48.114;11.532;2023-07-31T01:11:30;3.70;;;1.60;;
15679;SDS011;15488;48.114;11.532;2023-07-31T01:14:00;2.17;;;1.57;;
15679;SDS011;15488;48.114;11.532;2023-07-31T01:16:29;2.03;;;1.77;;
15679;SDS011;15488;48.114;11.532;2023-07-31T01:18:57;2.30;;;1.50;;
15679;SDS011;15488;48.114;11.532;2023-07-31T01:21:30;2.83;;;1.47;;
15679;SDS011;15488;48.114;11.532;2023-07-31T01:24:20;2.40;;;1.40;;
15679;SDS011;15488;48.114;11.532;2023-07-31T01:26:52;3.73;;;1.50;;
15679;SDS011;15488;48.114;11.532;2023-07-31T01:29:24;3.10;;;2.27;;
15679;SDS011;15488;48.114;11.532;2023-07-31T01:31:59;2.77;;;1.90;;
15679;SDS011;15488;48.114;11.532;2023-07-31T01:34:29;2.57;;;1.60;;
15679;SDS011;15488;48.114;11.532;2023-07-31T01:36:57;2.10;;;1.70;;
15679;SDS011;15488;48.114;11.532;2023-07-31T01:39:25;2.20;;;1.47;;
15679;SDS011;15488;48.114;11.532;2023-07-31T01:41:53;2.77;;;1.80;;
15679;SDS011;15488;48.114;11.532;2023-07-31T01:44:21;1.83;;;1.40;;
15679;SDS011;15488;48.114;11.532;2023-07-31T01:46:48;2.27;;;1.80;;
15679;SDS011;15488;48.114;11.532;2023-07-31T01:49:16;2.87;;;1.80;;
15679;SDS011;15488;48.114;11.532;2023-07-31T01:51:43;2.40;;;1.60;;
15679;SDS011;15488;48.114;11.532;2023-07-31T01:54:11;2.83;;;1.60;;
15679;SDS011;15488;48.114;11.532;2023-07-31T01:56:38;2.17;;;1.70;;
15679;SDS011;15488;48.114;11.532;2023-07-31T01:59:07;1.87;;;1.50;;
15679;SDS011;15488;48.114;11.532;2023-07-31T02:01:34;2.23;;;1.80;;
15679;SDS011;15488;48.114;11.532;2023-07-31T02:04:02;2.03;;;1.63;;
15679;SDS011;15488;48.114;11.532;2023-07-31T02:06:30;2.80;;;1.63;;
15679;SDS011;15488;48.114;11.532;2023-07-31T02:08:57;2.80;;;1.77;;
15679;SDS011;15488;48.114;11.532;2023-07-31T02:11:24;2.83;;;1.80;;
15679;SDS011;15488;48.114;11.532;2023-07-31T02:13:52;3.40;;;1.87;;
15679;SDS011;15488;48.114;11.532;2023-07-31T02:16:21;2.87;;;1.80;;
15679;SDS011;15488;48.114;11.532;2023-07-31T02:18:48;2.10;;;1.90;;
15679;SDS011;15488;48.114;11.532;2023-07-31T02:21:16;2.33;;;1.70;;
15679;SDS011;15488;48.114;11.532;2023-07-31T02:23:43;2.77;;;1.90;;
15679;SDS011;15488;48.114;11.532;2023-07-31T02:26:10;2.00;;;1.80;;
15679;SDS011;15488;48.114;11.532;2023-07-31T02:28:38;2.47;;;1.80;;
15679;SDS011;15488;48.114;11.532;2023-07-31T02:31:07;2.50;;;1.93;;
15679;SDS011;15488;48.114;11.532;2023-07-31T02:33:36;3.40;;;1.67;;
15679;SDS011;15488;48.114;11.532;2023-07-31T02:36:04;2.00;;;1.80;;
15679;SDS011;15488;48.114;11.532;2023-07-31T02:38:31;2.47;;;1.70;;
15679;SDS011;15488;48.114;11.532;2023-07-31T02:40:58;1.77;;;1.67;;
15679;SDS011;15488;48.114;11.532;2023-07-31T02:43:25;2.90;;;1.77;;
15679;SDS011;15488;48.114;11.532;2023-07-31T02:45:52;2.57;;;1.63;;
15679;SDS011;15488;48.114;11.532;2023-07-31T02:48:20;4.17;;;1.90;;
15679;SDS011;15488;48.114;11.532;2023-07-31T02:50:49;2.30;;;1.77;;
15679;SDS011;15488;48.114;11.532;2023-07-31T02:53:16;3.23;;;2.10;;
15679;SDS011;15488;48.114;11.532;2023-07-31T02:55:44;1.90;;;1.70;;
15679;SDS011;15488;48.114;11.532;2023-07-31T02:58:11;3.40;;;1.87;;
15679;SDS011;15488;48.114;11.532;2023-07-31T03:00:41;2.17;;;1.80;;
15679;SDS011;15488;48.114;11.532;2023-07-31T03:03:09;3.17;;;1.87;;
15679;SDS011;15488;48.114;11.532;2023-07-31T03:05:36;3.53;;;1.80;;
15679;SDS011;15488;48.114;11.532;2023-07-31T03:08:05;2.67;;;1.80;;
15679;SDS011;15488;48.114;11.532;2023-07-31T03:10:33;4.23;;;1.80;;
15679;SDS011;15488;48.114;11.532;2023-07-31T03:13:00;2.90;;;2.00;;
15679;SDS011;15488;48.114;11.532;2023-07-31T03:15:28;4.10;;;2.13;;
15679;SDS011;15488;48.114;11.532;2023-07-31T03:17:55;4.10;;;2.00;;
15679;SDS011;15488;48.114;11.532;2023-07-31T03:20:23;2.93;;;1.90;;
15679;SDS011;15488;48.114;11.532;2023-07-31T03:22:50;2.33;;;1.90;;
15679;SDS011;15488;48.114;11.532;2023-07-31T03:25:19;2.23;;;1.93;;
15679;SDS011;15488;48.114;11.532;2023-07-31T03:27:46;2.47;;;2.13;;
15679;SDS011;15488;48.114;11.532;2023-07-31T03:30:14;3.37;;;2.30;;
15679;SDS011;15488;48.114;11.532;2023-07-31T03:32:41;3.30;;;2.13;;
15679;SDS011;15488;48.114;11.532;2023-07-31T03:35:09;3.47;;;2.30;;
15679;SDS011;15488;48.114;11.532;2023-07-31T03:37:36;3.57;;;2.23;;
15679;SDS011;15488;48.114;11.532;2023-07-31T03:40:04;2.87;;;2.43;;
15679;SDS011;15488;48.114;11.532;2023-07-31T03:42:33;3.33;;;2.50;;
15679;SDS011;15488;48.114;11.532;2023-07-31T03:45:01;3.20;;;2.33;;
15679;SDS011;15488;48.114;11.532;2023-07-31T03:47:29;2.87;;;1.90;;
15679;SDS011;15488;48.114;11.532;2023-07-31T03:49:56;3.20;;;2.10;;
15679;SDS011;15488;48.114;11.532;2023-07-31T03:52:23;2.30;;;2.10;;
15679;SDS011;15488;48.114;11.532;2023-07-31T03:54:51;3.10;;;2.07;;
15679;SDS011;15488;48.114;11.532;2023-07-31T03:57:18;3.73;;;2.00;;
15679;SDS011;15488;48.114;11.532;2023-07-31T03:59:47;2.97;;;2.20;;
15679;SDS011;15488;48.114;11.532;2023-07-31T04:02:15;2.80;;;2.00;;
15679;SDS011;15488;48.114;11.532;2023-07-31T04:04:43;2.30;;;2.03;;
15679;SDS011;15488;48.114;11.532;2023-07-31T04:07:11;3.07;;;2.00;;
15679;SDS011;15488;48.114;11.532;2023-07-31T04:09:38;3.17;;;2.10;;
15679;SDS011;15488;48.114;11.532;2023-07-31T04:12:06;3.17;;;2.30;;
15679;SDS011;15488;48.114;11.532;2023-07-31T04:14:34;3.20;;;2.07;;
15679;SDS011;15488;48.114;11.532;2023-07-31T04:17:02;4.10;;;2.30;;
15679;SDS011;15488;48.114;11.532;2023-07-31T04:19:30;3.03;;;2.10;;
15679;SDS011;15488;48.114;11.532;2023-07-31T04:21:57;4.17;;;2.40;;
15679;SDS011;15488;48.114;11.532;2023-07-31T04:24:25;3.13;;;2.20;;
15679;SDS011;15488;48.114;11.532;2023-07-31T04:26:53;3.30;;;2.20;;
15679;SDS011;15488;48.114;11.532;2023-07-31T04:29:20;2.37;;;2.10;;
15679;SDS011;15488;48.114;11.532;2023-07-31T04:31:49;2.33;;;2.10;;
15679;SDS011;15488;48.114;11.532;2023-07-31T04:34:18;3.30;;;2.00;;
15679;SDS011;15488;48.114;11.532;2023-07-31T04:36:45;3.33;;;2.20;;
15679;SDS011;15488;48.114;11.532;2023-07-31T04:39:12;3.60;;;2.00;;
15679;SDS011;15488;48.114;11.532;2023-07-31T04:41:40;4.07;;;2.20;;
15679;SDS011;15488;48.114;11.532;2023-07-31T04:44:07;4.27;;;2.30;;
15679;SDS011;15488;48.114;11.532;2023-07-31T04:46:36;3.33;;;2.57;;
15679;SDS011;15488;48.114;11.532;2023-07-31T04:49:03;2.57;;;2.20;;
15679;SDS011;15488;48.114;11.532;2023-07-31T04:51:32;3.10;;;2.30;;
15679;SDS011;15488;48.114;11.532;2023-07-31T04:54:00;3.87;;;2.30;;
15679;SDS011;15488;48.114;11.532;2023-07-31T04:56:27;4.13;;;2.27;;
15679;SDS011;15488;48.114;11.532;2023-07-31T04:58:54;3.70;;;2.40;;
15679;SDS011;15488;48.114;11.532;2023-07-31T05:01:22;3.00;;;2.70;;
15679;SDS011;15488;48.114;11.532;2023-07-31T05:03:49;2.80;;;2.50;;
15679;SDS011;15488;48.114;11.532;2023-07-31T05:06:17;3.00;;;2.40;;
15679;SDS011;15488;48.114;11.532;2023-07-31T05:08:47;5.27;;;2.70;;
15679;SDS011;15488;48.114;11.532;2023-07-31T05:11:14;2.83;;;2.40;;
15679;SDS011;15488;48.114;11.532;2023-07-31T05:13:42;2.87;;;2.67;;
15679;SDS011;15488;48.114;11.532;2023-07-31T05:16:09;3.70;;;2.60;;
15679;SDS011;15488;48.114;11.532;2023-07-31T05:18:37;4.17;;;2.40;;
15679;SDS011;15488;48.114;11.532;2023-07-31T05:21:04;2.67;;;2.20;;
15679;SDS011;15488;48.114;11.532;2023-07-31T05:23:32;2.97;;;2.17;;
15679;SDS011;15488;48.114;11.532;2023-07-31T05:26:03;3.43;;;2.30;;
15679;SDS011;15488;48.114;11.532;2023-07-31T05:28:31;4.97;;;2.10;;
15679;SDS011;15488;48.114;11.532;2023-07-31T05:30:59;2.07;;;1.80;;
15679;SDS011;15488;48.114;11.532;2023-07-31T05:33:27;2.77;;;2.30;;
15679;SDS011;15488;48.114;11.532;2023-07-31T05:35:55;2.27;;;1.90;;
15679;SDS011;15488;48.114;11.532;2023-07-31T05:38:22;3.00;;;1.90;;
15679;SDS011;15488;48.114;11.532;2023-07-31T05:40:50;4.00;;;2.10;;
15679;SDS011;15488;48.114;11.532;2023-07-31T05:43:18;2.50;;;1.80;;
15679;SDS011;15488;48.114;11.532;2023-07-31T05:45:47;2.10;;;1.90;;
15679;SDS011;15488;48.114;11.532;2023-07-31T05:48:14;2.47;;;2.20;;
15679;SDS011;15488;48.114;11.532;2023-07-31T05:50:42;2.17;;;1.80;;
15679;SDS011;15488;48.114;11.532;2023-07-31T05:53:10;3.30;;;1.90;;
15679;SDS011;15488;48.114;11.532;2023-07-31T05:55:38;3.60;;;2.10;;
15679;SDS011;15488;48.114;11.532;2023-07-31T05:58:05;2.10;;;1.70;;
15679;SDS011;15488;48.114;11.532;2023-07-31T06:00:34;3.70;;;1.90;;
15679;SDS011;15488;48.114;11.532;2023-07-31T06:03:01;2.73;;;1.80;;
15679;SDS011;15488;48.114;11.532;2023-07-31T06:05:29;2.60;;;1.93;;
15679;SDS011;15488;48.114;11.532;2023-07-31T06:07:57;2.53;;;1.70;;
15679;SDS011;15488;48.114;11.532;2023-07-31T06:10:24;2.83;;;1.80;;
15679;SDS011;15488;48.114;11.532;2023-07-31T06:12:53;3.87;;;1.80;;
15679;SDS011;15488;48.114;11.532;2023-07-31T06:15:22;2.03;;;1.83;;
15679;SDS011;15488;48.114;11.532;2023-07-31T06:17:51;3.37;;;1.80;;
15679;SDS011;15488;48.114;11.532;2023-07-31T06:20:18;2.07;;;1.87;;
15679;SDS011;15488;48.114;11.532;2023-07-31T06:22:46;1.77;;;1.67;;
15679;SDS011;15488;48.114;11.532;2023-07-31T06:25:13;3.10;;;2.00;;
15679;SDS011;15488;48.114;11.532;2023-07-31T06:27:40;3.60;;;2.00;;
15679;SDS011;15488;48.114;11.532;2023-07-31T06:30:08;4.10;;;1.90;;
15679;SDS011;15488;48.114;11.532;2023-07-31T06:32:36;2.93;;;1.90;;
15679;SDS011;15488;48.114;11.532;2023-07-31T06:35:07;2.93;;;1.87;;
15679;SDS011;15488;48.114;11.532;2023-07-31T06:37:34;3.57;;;1.80;;
15679;SDS011;15488;48.114;11.532;2023-07-31T06:40:02;3.97;;;1.80;;
15679;SDS011;15488;48.114;11.532;2023-07-31T06:42:32;2.00;;;1.80;;
15679;SDS011;15488;48.114;11.532;2023-07-31T06:45:00;2.10;;;1.70;;
15679;SDS011;15488;48.114;11.532;2023-07-31T06:47:27;2.13;;;1.70;;
15679;SDS011;15488;48.114;11.532;2023-07-31T06:49:55;3.23;;;1.60;;
15679;SDS011;15488;48.114;11.532;2023-07-31T06:52:24;2.77;;;1.83;;
15679;SDS011;15488;48.114;11.532;2023-07-31T06:55:00;3.00;;;1.90;;
15679;SDS011;15488;48.114;11.532;2023-07-31T06:57:29;1.73;;;1.60;;
15679;SDS011;15488;48.114;11.532;2023-07-31T06:59:57;3.03;;;1.60;;
15679;SDS011;15488;48.114;11.532;2023-07-31T07:02:25;3.80;;;2.67;;
15679;SDS011;15488;48.114;11.532;2023-07-31T07:04:52;4.67;;;3.00;;
15679;SDS011;15488;48.114;11.532;2023-07-31T07:07:19;5.87;;;2.17;;
15679;SDS011;15488;48.114;11.532;2023-07-31T07:09:48;2.90;;;1.70;;
15679;SDS011;15488;48.114;11.532;2023-07-31T07:12:16;2.70;;;1.90;;
15679;SDS011;15488;48.114;11.532;2023-07-31T07:14:43;1.87;;;1.70;;
15679;SDS011;15488;48.114;11.532;2023-07-31T07:17:12;3.90;;;1.90;;
15679;SDS011;15488;48.114;11.532;2023-07-31T07:19:40;2.57;;;1.70;;
15679;SDS011;15488;48.114;11.532;2023-07-31T07:22:08;2.27;;;1.87;;
15679;SDS011;15488;48.114;11.532;2023-07-31T07:24:36;2.67;;;1.80;;
15679;SDS011;15488;48.114;11.532;2023-07-31T07:27:05;2.83;;;2.00;;
15679;SDS011;15488;48.114;11.532;2023-07-31T07:29:33;1.93;;;1.50;;
15679;SDS011;15488;48.114;11.532;2023-07-31T07:32:01;3.40;;;1.70;;
15679;SDS011;15488;48.114;11.532;2023-07-31T07:34:28;2.70;;;2.50;;
15679;SDS011;15488;48.114;11.532;2023-07-31T07:36:56;3.47;;;2.00;;
15679;SDS011;15488;48.114;11.532;2023-07-31T07:39:23;2.87;;;1.87;;
15679;SDS011;15488;48.114;11.532;2023-07-31T07:41:51;1.97;;;1.40;;
15679;SDS011;15488;48.114;11.532;2023-07-31T07:44:20;1.90;;;1.73;;
15679;SDS011;15488;48.114;11.532;2023-07-31T07:46:48;2.37;;;1.60;;
15679;SDS011;15488;48.114;11.532;2023-07-31T07:49:15;2.37;;;1.70;;
15679;SDS011;15488;48.114;11.532;2023-07-31T07:51:43;2.37;;;1.63;;
15679;SDS011;15488;48.114;11.532;2023-07-31T07:54:10;2.63;;;1.80;;
15679;SDS011;15488;48.114;11.532;2023-07-31T07:56:38;2.03;;;1.70;;
15679;SDS011;15488;48.114;11.532;2023-07-31T07:59:05;2.70;;;1.60;;
15679;SDS011;15488;48.114;11.532;2023-07-31T08:01:34;3.53;;;1.70;;
15679;SDS011;15488;48.114;11.532;2023-07-31T08:04:01;2.53;;;1.47;;
15679;SDS011;15488;48.114;11.532;2023-07-31T08:06:29;3.57;;;2.07;;
15679;SDS011;15488;48.114;11.532;2023-07-31T08:08:56;3.27;;;2.10;;
15679;SDS011;15488;48.114;11.532;2023-07-31T08:11:24;3.03;;;1.90;;
15679;SDS011;15488;48.114;11.532;2023-07-31T08:13:51;3.73;;;1.90;;
15679;SDS011;15488;48.114;11.532;2023-07-31T08:16:19;3.33;;;2.20;;
15679;SDS011;15488;48.114;11.532;2023-07-31T08:18:47;3.27;;;1.70;;
15679;SDS011;15488;48.114;11.532;2023-07-31T08:21:15;2.43;;;1.80;;
15679;SDS011;15488;48.114;11.532;2023-07-31T08:23:42;2.67;;;1.60;;
15679;SDS011;15488;48.114;11.532;2023-07-31T08:26:14;1.97;;;1.70;;
15679;SDS011;15488;48.114;11.532;2023-07-31T08:28:42;2.07;;;1.60;;
15679;SDS011;15488;48.114;11.532;2023-07-31T08:31:10;2.37;;;1.70;;
15679;SDS011;15488;48.114;11.532;2023-07-31T08:33:38;1.93;;;1.47;;
15679;SDS011;15488;48.114;11.532;2023-07-31T08:36:07;2.47;;;1.80;;
15679;SDS011;15488;48.114;11.532;2023-07-31T08:38:35;3.00;;;1.73;;
15679;SDS011;15488;48.114;11.532;2023-07-31T08:41:02;1.73;;;1.60;;
15679;SDS011;15488;48.114;11.532;2023-07-31T08:43:30;3.27;;;1.80;;
15679;SDS011;15488;48.114;11.532;2023-07-31T08:45:58;2.07;;;1.63;;
15679;SDS011;15488;48.114;11.532;2023-07-31T08:48:26;2.23;;;1.40;;
15679;SDS011;15488;48.114;11.532;2023-07-31T08:50:55;1.83;;;1.57;;
15679;SDS011;15488;48.114;11.532;2023-07-31T08:53:24;3.47;;;1.50;;
15679;SDS011;15488;48.114;11.532;2023-07-31T08:55:52;2.57;;;1.80;;
15679;SDS011;15488;48.114;11.532;2023-07-31T08:58:21;2.17;;;1.50;;
15679;SDS011;15488;48.114;11.532;2023-07-31T09:00:49;2.77;;;1.57;;
15679;SDS011;15488;48.114;11.532;2023-07-31T09:03:18;3.77;;;1.57;;
15679;SDS011;15488;48.114;11.532;2023-07-31T09:05:48;1.80;;;1.70;;
15679;SDS011;15488;48.114;11.532;2023-07-31T09:08:17;2.27;;;1.47;;
15679;SDS011;15488;48.114;11.532;2023-07-31T09:10:48;2.57;;;1.80;;
15679;SDS011;15488;48.114;11.532;2023-07-31T09:13:16;2.40;;;1.70;;
15679;SDS011;15488;48.114;11.532;2023-07-31T09:15:44;1.67;;;1.53;;
15679;SDS011;15488;48.114;11.532;2023-07-31T09:18:12;2.80;;;1.73;;
15679;SDS011;15488;48.114;11.532;2023-07-31T09:20:43;1.93;;;1.50;;
15679;SDS011;15488;48.114;11.532;2023-07-31T09:23:11;3.20;;;1.90;;
15679;SDS011;15488;48.114;11.532;2023-07-31T09:25:43;5.33;;;1.83;;
15679;SDS011;15488;48.114;11.532;2023-07-31T09:28:12;1.73;;;1.60;;
15679;SDS011;15488;48.114;11.532;2023-07-31T09:30:44;1.93;;;1.50;;
15679;SDS011;15488;48.114;11.532;2023-07-31T09:33:13;1.87;;;1.57;;
15679;SDS011;15488;48.114;11.532;2023-07-31T09:35:40;1.83;;;1.63;;
15679;SDS011;15488;48.114;11.532;2023-07-31T09:38:09;1.63;;;1.47;;
15679;SDS011;15488;48.114;11.532;2023-07-31T09:40:38;3.03;;;1.70;;
15679;SDS011;15488;48.114;11.532;2023-07-31T09:43:07;3.17;;;1.77;;
15679;SDS011;15488;48.114;11.532;2023-07-31T09:45:38;2.20;;;1.70;;
15679;SDS011;15488;48.114;11.532;2023-07-31T09:48:07;2.87;;;1.83;;
15679;SDS011;15488;48.114;11.532;2023-07-31T09:50:36;3.27;;;1.70;;
15679;SDS011;15488;48.114;11.532;2023-07-31T09:53:04;2.30;;;1.70;;
15679;SDS011;15488;48.114;11.532;2023-07-31T09:55:32;4.40;;;2.00;;
15679;SDS011;15488;48.114;11.532;2023-07-31T09:58:02;2.83;;;1.90;;
15679;SDS011;15488;48.114;11.532;2023-07-31T10:00:31;3.23;;;1.60;;
15679;SDS011;15488;48.114;11.532;2023-07-31T10:03:01;3.50;;;1.60;;
15679;SDS011;15488;48.114;11.532;2023-07-31T10:05:31;3.10;;;1.90;;
15679;SDS011;15488;48.114;11.532;2023-07-31T10:08:01;2.07;;;1.63;;
15679;SDS011;15488;48.114;11.532;2023-07-31T10:10:30;3.03;;;2.00;;
15679;SDS011;15488;48.114;11.532;2023-07-31T10:12:59;2.77;;;2.07;;
15679;SDS011;15488;48.114;11.532;2023-07-31T10:15:27;2.60;;;1.80;;
15679;SDS011;15488;48.114;11.532;2023-07-31T10:17:56;3.87;;;1.70;;
15679;SDS011;15488;48.114;11.532;2023-07-31T10:20:26;1.93;;;1.73;;
15679;SDS011;15488;48.114;11.532;2023-07-31T10:22:54;2.10;;;1.87;;
15679;SDS011;15488;48.114;11.532;2023-07-31T10:25:22;2.40;;;1.83;;
15679;SDS011;15488;48.114;11.532;2023-07-31T10:27:52;1.90;;;1.70;;
15679;SDS011;15488;48.114;11.532;2023-07-31T10:30:20;2.57;;;1.70;;
15679;SDS011;15488;48.114;11.532;2023-07-31T10:32:52;1.90;;;1.60;;
15679;SDS011;15488;48.114;11.532;2023-07-31T10:35:20;2.77;;;1.80;;
15679;SDS011;15488;48.114;11.532;2023-07-31T10:37:49;2.40;;;1.60;;
15679;SDS011;15488;48.114;11.532;2023-07-31T10:40:18;3.33;;;1.80;;
15679;SDS011;15488;48.114;11.532;2023-07-31T10:42:49;2.23;;;1.60;;
15679;SDS011;15488;48.114;11.532;2023-07-31T10:45:24;2.43;;;1.60;;
15679;SDS011;15488;48.114;11.532;2023-07-31T10:47:59;2.67;;;2.00;;
15679;SDS011;15488;48.114;11.532;2023-07-31T10:50:28;2.57;;;1.90;;
15679;SDS011;15488;48.114;11.532;2023-07-31T10:52:59;3.17;;;1.70;;
15679;SDS011;15488;48.114;11.532;2023-07-31T10:55:28;2.80;;;1.60;;
15679;SDS011;15488;48.114;11.532;2023-07-31T10:57:56;1.80;;;1.70;;
15679;SDS011;15488;48.114;11.532;2023-07-31T11:00:32;1.87;;;1.70;;
15679;SDS011;15488;48.114;11.532;2023-07-31T11:03:00;1.80;;;1.60;;
15679;SDS011;15488;48.114;11.532;2023-07-31T11:05:46;2.17;;;1.53;;
15679;SDS011;15488;48.114;11.532;2023-07-31T11:08:16;2.30;;;1.73;;
15679;SDS011;15488;48.114;11.532;2023-07-31T11:10:47;2.07;;;1.63;;
15679;SDS011;15488;48.114;11.532;2023-07-31T11:13:15;3.03;;;1.97;;
15679;SDS011;15488;48.114;11.532;2023-07-31T11:15:43;2.17;;;1.80;;
15679;SDS011;15488;48.114;11.532;2023-07-31T11:18:13;2.17;;;1.80;;
15679;SDS011;15488;48.114;11.532;2023-07-31T11:20:42;3.33;;;1.90;;
15679;SDS011;15488;48.114;11.532;2023-07-31T11:23:09;3.00;;;1.90;;
15679;SDS011;15488;48.114;11.532;2023-07-31T11:25:39;2.30;;;1.90;;
15679;SDS011;15488;48.114;11.532;2023-07-31T11:28:09;3.73;;;1.70;;
15679;SDS011;15488;48.114;11.532;2023-07-31T11:30:40;2.23;;;1.70;;
15679;SDS011;15488;48.114;11.532;2023-07-31T11:33:10;2.33;;;1.60;;
15679;SDS011;15488;48.114;11.532;2023-07-31T11:35:41;2.73;;;1.80;;
15679;SDS011;15488;48.114;11.532;2023-07-31T11:38:10;2.03;;;1.73;;
15679;SDS011;15488;48.114;11.532;2023-07-31T11:40:42;2.97;;;2.10;;
15679;SDS011;15488;48.114;11.532;2023-07-31T11:43:10;2.40;;;1.90;;
15679;SDS011;15488;48.114;11.532;2023-07-31T11:45:42;3.57;;;1.80;;
15679;SDS011;15488;48.114;11.532;2023-07-31T11:48:17;2.50;;;1.75;;
15679;SDS011;15488;48.114;11.532;2023-07-31T11:50:47;2.03;;;1.67;;
15679;SDS011;15488;48.114;11.532;2023-07-31T11:53:16;6.72;;;1.88;;
15679;SDS011;15488;48.114;11.532;2023-07-31T11:55:48;5.20;;;1.90;;
15679;SDS011;15488;48.114;11.532;2023-07-31T11:58:16;2.85;;;1.90;;
15679;SDS011;15488;48.114;11.532;2023-07-31T12:00:45;2.30;;;2.10;;
15679;SDS011;15488;48.114;11.532;2023-07-31T12:03:13;2.17;;;1.70;;
15679;SDS011;15488;48.114;11.532;2023-07-31T12:05:41;2.13;;;1.75;;
15679;SDS011;15488;48.114;11.532;2023-07-31T12:08:09;2.40;;;2.17;;
15679;SDS011;15488;48.114;11.532;2023-07-31T12:10:37;3.90;;;1.63;;
15679;SDS011;15488;48.114;11.532;2023-07-31T12:13:08;2.28;;;1.63;;
15679;SDS011;15488;48.114;11.532;2023-07-31T12:15:39;2.33;;;1.77;;
15679;SDS011;15488;48.114;11.532;2023-07-31T12:18:08;1.92;;;1.73;;
15679;SDS011;15488;48.114;11.532;2023-07-31T12:20:40;2.63;;;2.00;;
15679;SDS011;15488;48.114;11.532;2023-07-31T12:23:12;4.25;;;3.85;;
15679;SDS011;15488;48.114;11.532;2023-07-31T12:25:41;5.22;;;3.10;;
15679;SDS011;15488;48.114;11.532;2023-07-31T12:28:10;2.03;;;1.83;;
15679;SDS011;15488;48.114;11.532;2023-07-31T12:30:38;4.57;;;2.70;;
15679;SDS011;15488;48.114;11.532;2023-07-31T12:33:07;2.65;;;2.45;;
15679;SDS011;15488;48.114;11.532;2023-07-31T12:35:40;2.40;;;2.20;;
15679;SDS011;15488;48.114;11.532;2023-07-31T12:38:11;3.38;;;1.90;;
15679;SDS011;15488;48.114;11.532;2023-07-31T12:40:39;2.30;;;1.98;;
15679;SDS011;15488;48.114;11.532;2023-07-31T12:43:07;2.80;;;1.90;;
15679;SDS011;15488;48.114;11.532;2023-07-31T12:45:36;3.65;;;1.98;;
15679;SDS011;15488;48.114;11.532;2023-07-31T12:48:04;2.92;;;2.05;;
15679;SDS011;15488;48.114;11.532;2023-07-31T12:50:31;2.53;;;2.03;;
15679;SDS011;15488;48.114;11.532;2023-07-31T12:53:01;3.22;;;1.80;;
15679;SDS011;15488;48.114;11.532;2023-07-31T12:55:29;2.10;;;1.63;;
15679;SDS011;15488;48.114;11.532;2023-07-31T12:57:57;2.03;;;1.90;;
15679;SDS011;15488;48.114;11.532;2023-07-31T13:00:26;3.53;;;2.45;;
15679;SDS011;15488;48.114;11.532;2023-07-31T13:02:54;2.70;;;1.88;;
15679;SDS011;15488;48.114;11.532;2023-07-31T13:05:21;2.33;;;1.83;;
15679;SDS011;15488;48.114;11.532;2023-07-31T13:07:49;3.97;;;1.90;;
15679;SDS011;15488;48.114;11.532;2023-07-31T13:10:16;1.65;;;1.50;;
15679;SDS011;15488;48.114;11.532;2023-07-31T13:12:44;2.33;;;1.70;;
15679;SDS011;15488;48.114;11.532;2023-07-31T13:15:11;2.42;;;1.80;;
15679;SDS011;15488;48.114;11.532;2023-07-31T13:17:41;3.00;;;1.95;;
15679;SDS011;15488;48.114;11.532;2023-07-31T13:20:09;2.70;;;1.83;;
15679;SDS011;15488;48.114;11.532;2023-07-31T13:22:37;4.20;;;1.98;;
15679;SDS011;15488;48.114;11.532;2023-07-31T13:25:05;2.67;;;1.60;;
15679;SDS011;15488;48.114;11.532;2023-07-31T13:27:34;1.80;;;1.60;;
15679;SDS011;15488;48.114;11.532;2023-07-31T13:30:01;2.83;;;1.80;;
15679;SDS011;15488;48.114;11.532;2023-07-31T13:32:29;1.85;;;1.67;;
15679;SDS011;15488;48.114;11.532;2023-07-31T13:34:58;1.75;;;1.65;;
15679;SDS011;15488;48.114;11.532;2023-07-31T13:37:26;1.95;;;1.80;;
15679;SDS011;15488;48.114;11.532;2023-07-31T13:39:53;2.05;;;1.95;;
15679;SDS011;15488;48.114;11.532;2023-07-31T13:42:20;2.13;;;1.90;;
15679;SDS011;15488;48.114;11.532;2023-07-31T13:44:48;2.50;;;2.00;;
15679;SDS011;15488;48.114;11.532;2023-07-31T13:47:15;2.60;;;2.40;;
15679;SDS011;15488;48.114;11.532;2023-07-31T13:49:43;2.97;;;2.78;;
15679;SDS011;15488;48.114;11.532;2023-07-31T13:52:11;3.67;;;3.38;;
15679;SDS011;15488;48.114;11.532;2023-07-31T13:54:39;4.82;;;3.53;;
15679;SDS011;15488;48.114;11.532;2023-07-31T13:57:08;3.90;;;3.60;;
15679;SDS011;15488;48.114;11.532;2023-07-31T13:59:35;3.38;;;3.17;;
15679;SDS011;15488;48.114;11.532;2023-07-31T14:02:03;3.60;;;3.25;;
15679;SDS011;15488;48.114;11.532;2023-07-31T14:04:30;3.08;;;2.78;;
15679;SDS011;15488;48.114;11.532;2023-07-31T14:06:58;3.17;;;2.90;;
15679;SDS011;15488;48.114;11.532;2023-07-31T14:09:27;3.00;;;2.70;;
15679;SDS011;15488;48.114;11.532;2023-07-31T14:11:54;3.15;;;2.00;;
15679;SDS011;15488;48.114;11.532;2023-07-31T14:14:22;2.83;;;2.20;;
15679;SDS011;15488;48.114;11.532;2023-07-31T14:16:49;2.20;;;2.00;;
15679;SDS011;15488;48.114;11.532;2023-07-31T14:19:16;3.95;;;2.08;;
15679;SDS011;15488;48.114;11.532;2023-07-31T14:21:44;2.08;;;1.98;;
15679;SDS011;15488;48.114;11.532;2023-07-31T14:24:11;1.80;;;1.70;;
15679;SDS011;15488;48.114;11.532;2023-07-31T14:26:40;2.05;;;1.83;;
15679;SDS011;15488;48.114;11.532;2023-07-31T14:29:07;3.22;;;2.15;;
15679;SDS011;15488;48.114;11.532;2023-07-31T14:31:35;2.78;;;1.88;;
15679;SDS011;15488;48.114;11.532;2023-07-31T14:34:03;3.13;;;2.80;;
15679;SDS011;15488;48.114;11.532;2023-07-31T14:36:30;3.20;;;2.60;;
15679;SDS011;15488;48.114;11.532;2023-07-31T14:38:58;2.80;;;2.60;;
15679;SDS011;15488;48.114;11.532;2023-07-31T14:41:25;2.60;;;2.40;;